createdAt,value
2022-07-29T00:01:04.003Z,101521.94
2022-07-29T00:03:32.015Z,101511.19
2022-07-29T00:06:00.880Z,101517.56
2022-07-29T00:08:28.982Z,101522.81
2022-07-29T00:10:57.011Z,101530.66
2022-07-29T00:13:32.179Z,101523.59
2022-07-29T00:16:04.368Z,101518.25
2022-07-29T00:18:33.164Z,101530.56
2022-07-29T00:21:01.369Z,101521.88
2022-07-29T00:23:30.718Z,101520.88
2022-07-29T00:25:59.565Z,101513.97
2022-07-29T00:28:28.933Z,101518.81
2022-07-29T00:30:56.907Z,101516.53
2022-07-29T00:33:24.869Z,101508.75
2022-07-29T00:35:51.929Z,101511.59
2022-07-29T00:38:22.076Z,101503.78
2022-07-29T00:40:50.274Z,101504.53
2022-07-29T00:43:21.587Z,101502.78
2022-07-29T00:45:50.953Z,101506.41
2022-07-29T00:48:19.018Z,101509.81
2022-07-29T00:50:46.987Z,101507.75
2022-07-29T00:53:15.391Z,101512.75
2022-07-29T00:55:43.437Z,101494.00
2022-07-29T00:58:14.015Z,101497.44
2022-07-29T01:00:42.592Z,101492.63
2022-07-29T01:03:14.222Z,101492.09
2022-07-29T01:05:50.117Z,101497.75
2022-07-29T01:08:21.368Z,101494.88
2022-07-29T01:10:50.073Z,101497.56
2022-07-29T01:13:19.784Z,101487.00
2022-07-29T01:15:57.343Z,101495.47
2022-07-29T01:18:35.691Z,101492.38
2022-07-29T01:21:29.573Z,101486.44
2022-07-29T01:24:32.124Z,101483.84
2022-07-29T01:27:12.473Z,101471.53
2022-07-29T01:29:55.572Z,101474.13
2022-07-29T01:32:31.002Z,101471.72
2022-07-29T01:35:12.388Z,101464.78
2022-07-29T01:37:52.636Z,101466.50
2022-07-29T01:40:26.282Z,101451.81
2022-07-29T01:42:59.121Z,101436.13
2022-07-29T01:45:38.961Z,101436.28
2022-07-29T01:48:15.294Z,101433.50
2022-07-29T01:50:52.307Z,101414.22
2022-07-29T01:53:37.697Z,101412.44
2022-07-29T01:56:08.470Z,101416.03
2022-07-29T01:58:40.748Z,101414.56
2022-07-29T02:01:12.891Z,101413.72
2022-07-29T02:03:46.976Z,101420.59
2022-07-29T02:06:23.075Z,101411.00
2022-07-29T02:08:53.093Z,101406.75
2022-07-29T02:11:21.212Z,101412.00
2022-07-29T02:13:51.328Z,101418.13
2022-07-29T02:16:26.320Z,101415.53
2022-07-29T02:18:57.509Z,101415.53
2022-07-29T02:21:29.023Z,101417.22
2022-07-29T02:24:01.357Z,101418.91
2022-07-29T02:26:32.356Z,101424.88
2022-07-29T02:29:03.150Z,101427.63
2022-07-29T02:31:37.392Z,101424.19
2022-07-29T02:34:10.370Z,101427.66
2022-07-29T02:36:39.977Z,101424.06
2022-07-29T02:39:10.942Z,101421.53
2022-07-29T02:41:45.598Z,101416.22
2022-07-29T02:44:16.891Z,101424.84
2022-07-29T02:46:53.742Z,101428.31
2022-07-29T02:49:38.707Z,101425.00
2022-07-29T02:52:14.549Z,101431.97
2022-07-29T02:54:51.090Z,101423.34
2022-07-29T02:57:28.649Z,101429.34
2022-07-29T03:00:01.006Z,101419.81
2022-07-29T03:02:35.488Z,101418.16
2022-07-29T03:05:05.971Z,101426.84
2022-07-29T03:07:36.008Z,101425.97
2022-07-29T03:10:06.299Z,101425.97
2022-07-29T03:12:42.819Z,101422.50
2022-07-29T03:15:12.187Z,101419.84
2022-07-29T03:17:42.580Z,101427.72
2022-07-29T03:20:13.484Z,101414.69
2022-07-29T03:22:44.641Z,101417.94
2022-07-29T03:25:14.503Z,101415.28
2022-07-29T03:27:42.678Z,101420.75
2022-07-29T03:30:13.104Z,101412.66
2022-07-29T03:32:53.005Z,101405.13
2022-07-29T03:35:21.410Z,101409.50
2022-07-29T03:37:49.610Z,101412.09
2022-07-29T03:40:24.473Z,101403.38
2022-07-29T03:42:56.509Z,101403.38
2022-07-29T03:45:27.305Z,101393.84
2022-07-29T03:48:02.987Z,101399.91
2022-07-29T03:50:32.810Z,101390.31
2022-07-29T03:53:01.076Z,101389.53
2022-07-29T03:55:34.413Z,101385.16
2022-07-29T03:58:04.090Z,101392.75
2022-07-29T04:00:34.377Z,101389.09
2022-07-29T04:03:06.157Z,101395.47
2022-07-29T04:05:39.449Z,101397.88
2022-07-29T04:08:07.983Z,101401.47
2022-07-29T04:10:36.090Z,101399.00
2022-07-29T04:13:03.999Z,101399.91
2022-07-29T04:15:32.048Z,101404.16
2022-07-29T04:18:00.819Z,101400.53
2022-07-29T04:20:30.063Z,101408.22
2022-07-29T04:22:57.913Z,101421.06
2022-07-29T04:25:25.711Z,101415.91
2022-07-29T04:28:02.721Z,101417.84
2022-07-29T04:30:32.564Z,101406.31
2022-07-29T04:33:01.739Z,101398.00
2022-07-29T04:35:37.959Z,101394.38
2022-07-29T04:38:15.537Z,101399.28
2022-07-29T04:40:43.932Z,101401.09
2022-07-29T04:43:12.552Z,101401.28
2022-07-29T04:45:42.167Z,101403.66
2022-07-29T04:48:10.328Z,101405.41
2022-07-29T04:50:41.929Z,101398.84
2022-07-29T04:53:09.930Z,101409.31
2022-07-29T04:55:38.982Z,101422.00
2022-07-29T04:58:07.178Z,101415.75
2022-07-29T05:00:35.643Z,101410.28
2022-07-29T05:03:03.553Z,101415.13
2022-07-29T05:05:31.845Z,101408.13
2022-07-29T05:08:01.115Z,101401.38
2022-07-29T05:10:29.758Z,101407.84
2022-07-29T05:12:57.597Z,101403.84
2022-07-29T05:15:25.646Z,101399.34
2022-07-29T05:17:53.467Z,101400.63
2022-07-29T05:20:27.019Z,101406.97
2022-07-29T05:22:55.056Z,101401.22
2022-07-29T05:25:24.662Z,101403.19
2022-07-29T05:28:12.516Z,101392.72
2022-07-29T05:30:40.795Z,101397.19
2022-07-29T05:33:08.865Z,101399.66
2022-07-29T05:36:00.288Z,101391.63
2022-07-29T05:38:29.101Z,101395.38
2022-07-29T05:41:00.872Z,101389.25
2022-07-29T05:43:29.415Z,101387.50
2022-07-29T05:45:58.056Z,101380.53
2022-07-29T05:48:26.659Z,101390.59
2022-07-29T05:50:55.483Z,101400.00
2022-07-29T05:53:24.080Z,101392.47
2022-07-29T05:55:53.944Z,101402.41
2022-07-29T05:58:23.327Z,101402.84
2022-07-29T06:00:51.390Z,101398.56
2022-07-29T06:03:19.433Z,101392.28
2022-07-29T06:05:47.458Z,101390.63
2022-07-29T06:08:15.488Z,101403.66
2022-07-29T06:10:44.124Z,101398.94
2022-07-29T06:13:12.333Z,101399.66
2022-07-29T06:15:41.804Z,101399.94
2022-07-29T06:18:11.106Z,101390.38
2022-07-29T06:20:39.216Z,101394.09
2022-07-29T06:23:07.859Z,101391.59
2022-07-29T06:25:37.639Z,101389.78
2022-07-29T06:28:06.290Z,101383.25
2022-07-29T06:30:34.496Z,101387.47
2022-07-29T06:33:04.839Z,101387.09
2022-07-29T06:35:39.013Z,101378.97
2022-07-29T06:38:30.812Z,101382.88
2022-07-29T06:41:02.172Z,101379.34
2022-07-29T06:43:34.856Z,101378.22
2022-07-29T06:46:05.821Z,101388.75
2022-07-29T06:48:37.055Z,101387.09
2022-07-29T06:51:06.090Z,101390.88
2022-07-29T06:53:35.242Z,101389.75
2022-07-29T06:56:05.208Z,101387.25
2022-07-29T06:58:33.422Z,101399.06
2022-07-29T07:01:05.370Z,101393.44
2022-07-29T07:03:35.602Z,101395.66
2022-07-29T07:06:04.365Z,101402.47
2022-07-29T07:08:32.519Z,101389.03
2022-07-29T07:11:00.587Z,101390.56
2022-07-29T07:13:29.179Z,101397.75
2022-07-29T07:15:58.476Z,101386.81
2022-07-29T07:18:26.537Z,101385.97
2022-07-29T07:20:56.016Z,101392.41
2022-07-29T07:23:24.082Z,101393.91
2022-07-29T07:25:52.152Z,101392.03
2022-07-29T07:28:24.662Z,101398.53
2022-07-29T07:30:54.433Z,101386.63
2022-07-29T07:33:22.581Z,101387.56
2022-07-29T07:35:50.807Z,101377.84
2022-07-29T07:38:20.174Z,101378.38
2022-07-29T07:40:48.346Z,101382.81
2022-07-29T07:43:16.450Z,101373.03
2022-07-29T07:45:44.496Z,101371.75
2022-07-29T07:48:12.456Z,101368.91
2022-07-29T07:50:40.815Z,101377.97
2022-07-29T07:53:08.954Z,101379.84
2022-07-29T07:58:31.286Z,101374.84
2022-07-29T08:00:59.396Z,101362.50
2022-07-29T08:03:27.445Z,101367.19
2022-07-29T08:05:55.412Z,101361.16
2022-07-29T08:08:23.545Z,101357.34
2022-07-29T08:10:56.851Z,101351.75
2022-07-29T08:13:29.025Z,101357.38
2022-07-29T08:16:01.236Z,101361.09
2022-07-29T08:18:31.825Z,101352.38
2022-07-29T08:21:00.717Z,101349.22
2022-07-29T08:23:47.822Z,101346.41
2022-07-29T08:26:21.088Z,101334.00
2022-07-29T08:28:51.236Z,101336.19
2022-07-29T08:31:19.748Z,101343.34
2022-07-29T08:33:47.888Z,101337.22
2022-07-29T08:36:15.887Z,101345.31
2022-07-29T08:38:43.868Z,101330.47
2022-07-29T08:41:12.021Z,101326.41
2022-07-29T08:43:42.799Z,101329.69
2022-07-29T08:46:11.082Z,101329.50
2022-07-29T08:48:40.847Z,101329.22
2022-07-29T08:51:10.460Z,101324.28
2022-07-29T08:53:39.017Z,101344.09
2022-07-29T08:56:08.135Z,101334.00
2022-07-29T08:58:38.222Z,101329.50
2022-07-29T09:01:12.445Z,101328.19
2022-07-29T09:03:42.693Z,101325.94
2022-07-29T09:06:11.654Z,101328.16
2022-07-29T09:08:39.717Z,101328.31
2022-07-29T09:11:08.373Z,101334.34
2022-07-29T09:13:36.932Z,101330.41
2022-07-29T09:16:09.605Z,101329.91
2022-07-29T09:18:40.328Z,101323.16
2022-07-29T09:21:29.076Z,101324.78
2022-07-29T09:24:08.804Z,101317.38
2022-07-29T09:26:39.040Z,101314.03
2022-07-29T09:29:14.895Z,101327.38
2022-07-29T09:31:47.392Z,101319.25
2022-07-29T09:34:18.488Z,101320.31
2022-07-29T09:36:50.584Z,101321.97
2022-07-29T09:39:30.840Z,101304.81
2022-07-29T09:42:02.619Z,101308.53
2022-07-29T09:44:44.805Z,101302.50
2022-07-29T09:47:14.735Z,101312.88
2022-07-29T09:49:55.557Z,101305.91
2022-07-29T09:52:23.574Z,101322.72
2022-07-29T09:54:51.758Z,101303.81
2022-07-29T09:57:31.152Z,101301.38
2022-07-29T10:00:03.158Z,101312.28
2022-07-29T10:02:35.761Z,101296.94
2022-07-29T10:05:08.161Z,101298.00
2022-07-29T10:07:51.874Z,101297.66
2022-07-29T10:10:24.946Z,101297.38
2022-07-29T10:13:03.093Z,101292.16
2022-07-29T10:15:39.979Z,101281.81
2022-07-29T10:18:10.240Z,101296.50
2022-07-29T10:20:39.642Z,101283.91
2022-07-29T10:23:08.211Z,101279.66
2022-07-29T10:25:36.155Z,101270.53
2022-07-29T10:28:04.335Z,101282.38
2022-07-29T10:30:33.531Z,101291.63
2022-07-29T10:33:43.242Z,101292.56
2022-07-29T10:36:46.569Z,101284.53
2022-07-29T10:39:41.725Z,101290.88
2022-07-29T10:42:33.484Z,101281.19
2022-07-29T10:45:05.635Z,101288.00
2022-07-29T10:47:35.158Z,101284.06
2022-07-29T10:50:07.280Z,101269.66
2022-07-29T10:52:55.475Z,101266.91
2022-07-29T10:55:35.985Z,101269.59
2022-07-29T10:58:18.938Z,101276.63
2022-07-29T11:00:49.392Z,101270.56
2022-07-29T11:07:11.319Z,101274.78
2022-07-29T11:09:40.454Z,101263.22
2022-07-29T11:12:52.106Z,101269.22
2022-07-29T11:15:24.873Z,101260.81
2022-07-29T11:18:14.959Z,101256.31
2022-07-29T11:20:46.693Z,101264.41
2022-07-29T11:23:26.209Z,101255.47
2022-07-29T11:29:20.755Z,101256.91
2022-07-29T11:31:56.661Z,101251.84
2022-07-29T11:34:30.200Z,101244.66
2022-07-29T11:37:27.988Z,101245.09
2022-07-29T11:40:18.239Z,101253.06
2022-07-29T11:42:48.200Z,101249.88
2022-07-29T11:48:28.693Z,101242.78
2022-07-29T11:51:00.461Z,101223.19
2022-07-29T11:53:32.524Z,101232.06
2022-07-29T11:56:03.412Z,101235.84
2022-07-29T11:58:32.817Z,101226.69
2022-07-29T12:01:04.712Z,101227.69
2022-07-29T12:03:35.709Z,101238.72
2022-07-29T12:06:13.070Z,101231.88
2022-07-29T12:08:44.940Z,101230.84
2022-07-29T12:11:21.777Z,101219.13
2022-07-29T12:13:51.135Z,101221.72
2022-07-29T12:16:26.092Z,101221.09
2022-07-29T12:18:59.805Z,101211.28
2022-07-29T12:21:29.082Z,101209.97
2022-07-29T12:24:09.050Z,101204.09
2022-07-29T12:26:40.357Z,101203.69
2022-07-29T12:29:14.751Z,101198.31
2022-07-29T12:31:58.006Z,101200.47
2022-07-29T12:34:30.273Z,101193.19
2022-07-29T12:36:58.982Z,101196.41
2022-07-29T12:39:28.931Z,101192.38
2022-07-29T12:42:03.860Z,101196.03
2022-07-29T12:44:47.298Z,101184.28
2022-07-29T12:47:17.207Z,101182.53
2022-07-29T12:49:45.252Z,101176.63
2022-07-29T12:52:27.779Z,101181.03
2022-07-29T12:54:55.850Z,101182.78
2022-07-29T12:57:24.961Z,101179.47
2022-07-29T13:00:10.260Z,101182.94
2022-07-29T13:02:41.996Z,101188.78
2022-07-29T13:05:12.023Z,101184.94
2022-07-29T13:07:55.274Z,101188.38
2022-07-29T13:10:26.761Z,101176.59
2022-07-29T13:13:06.282Z,101177.94
2022-07-29T13:15:35.100Z,101169.25
2022-07-29T13:18:06.073Z,101179.28
2022-07-29T13:20:34.725Z,101181.47
2022-07-29T13:23:02.959Z,101169.56
2022-07-29T13:25:35.314Z,101156.19
2022-07-29T13:28:03.185Z,101157.22
2022-07-29T13:30:31.117Z,101159.94
2022-07-29T13:32:58.955Z,101148.88
2022-07-29T13:35:30.630Z,101157.59
2022-07-29T13:37:58.473Z,101156.56
2022-07-29T13:40:26.917Z,101160.09
2022-07-29T13:42:54.883Z,101157.25
2022-07-29T13:45:22.966Z,101142.34
2022-07-29T13:47:50.900Z,101143.19
2022-07-29T13:50:18.902Z,101137.94
2022-07-29T13:52:49.333Z,101140.09
2022-07-29T13:55:17.224Z,101140.91
2022-07-29T13:57:45.092Z,101142.28
2022-07-29T14:00:14.753Z,101140.75
2022-07-29T14:02:42.849Z,101135.88
2022-07-29T14:05:11.930Z,101130.53
2022-07-29T14:07:40.637Z,101131.31
2022-07-29T14:10:11.238Z,101132.38
2022-07-29T14:12:39.906Z,101130.75
2022-07-29T14:15:08.952Z,101133.69
2022-07-29T14:17:36.996Z,101121.84
2022-07-29T14:20:06.397Z,101125.47
2022-07-29T14:22:36.874Z,101120.19
2022-07-29T14:25:13.090Z,101114.47
2022-07-29T14:27:43.979Z,101109.22
2022-07-29T14:30:13.616Z,101110.34
2022-07-29T14:32:41.595Z,101113.53
2022-07-29T14:35:10.458Z,101113.78
2022-07-29T14:37:40.503Z,101119.00
2022-07-29T14:40:11.700Z,101107.88
2022-07-29T14:42:40.366Z,101107.41
2022-07-29T14:45:11.199Z,101114.88
2022-07-29T14:47:40.366Z,101107.97
2022-07-29T14:50:10.500Z,101103.84
2022-07-29T14:52:39.023Z,101111.13
2022-07-29T14:55:19.419Z,101105.69
2022-07-29T14:57:49.078Z,101106.94
2022-07-29T15:00:18.064Z,101105.75
2022-07-29T15:03:01.461Z,101116.56
2022-07-29T15:05:30.069Z,101111.47
2022-07-29T15:07:57.906Z,101105.84
2022-07-29T15:10:27.986Z,101106.50
2022-07-29T15:12:56.074Z,101096.75
2022-07-29T15:15:24.246Z,101094.91
2022-07-29T15:17:52.140Z,101095.13
2022-07-29T15:20:20.518Z,101088.22
2022-07-29T15:22:48.392Z,101100.91
2022-07-29T15:25:16.305Z,101089.16
2022-07-29T15:27:49.726Z,101097.28
2022-07-29T15:30:31.582Z,101092.56
2022-07-29T15:33:01.068Z,101098.66
2022-07-29T15:35:28.901Z,101081.06
2022-07-29T15:37:56.753Z,101090.53
2022-07-29T15:40:24.626Z,101094.13
2022-07-29T15:42:53.891Z,101092.81
2022-07-29T15:45:22.014Z,101084.03
2022-07-29T15:47:49.879Z,101086.53
2022-07-29T15:50:18.739Z,101073.50
2022-07-29T15:52:46.969Z,101078.56
2022-07-29T15:55:15.642Z,101080.28
2022-07-29T15:57:43.833Z,101083.19
2022-07-29T16:00:14.590Z,101088.56
2022-07-29T16:02:42.403Z,101089.03
2022-07-29T16:05:10.929Z,101086.19
2022-07-29T16:07:38.843Z,101092.88
2022-07-29T16:10:08.056Z,101088.34
2022-07-29T16:12:35.889Z,101078.59
2022-07-29T16:15:09.478Z,101075.00
2022-07-29T16:17:39.089Z,101085.78
2022-07-29T16:20:08.918Z,101079.19
2022-07-29T16:22:38.426Z,101078.41
2022-07-29T16:25:07.683Z,101071.50
2022-07-29T16:27:37.960Z,101071.69
2022-07-29T16:30:09.602Z,101067.94
2022-07-29T16:32:39.811Z,101052.56
2022-07-29T16:35:09.943Z,101053.06
2022-07-29T16:37:38.284Z,101058.63
2022-07-29T16:40:11.583Z,101052.63
2022-07-29T16:42:47.709Z,101051.13
2022-07-29T16:45:17.970Z,101049.69
2022-07-29T16:47:47.315Z,101046.31
2022-07-29T16:50:15.350Z,101050.97
2022-07-29T16:52:43.301Z,101045.13
2022-07-29T16:55:11.209Z,101051.16
2022-07-29T16:57:39.194Z,101051.94
2022-07-29T17:00:08.874Z,101050.09
2022-07-29T17:02:38.713Z,101044.75
2022-07-29T17:05:10.555Z,101044.88
2022-07-29T17:07:38.392Z,101037.38
2022-07-29T17:10:08.194Z,101044.53
2022-07-29T17:12:37.306Z,101048.88
2022-07-29T17:15:06.025Z,101041.47
2022-07-29T17:17:39.132Z,101052.06
2022-07-29T17:20:23.444Z,101056.09
2022-07-29T17:22:51.379Z,101053.00
2022-07-29T17:25:20.871Z,101050.53
2022-07-29T17:27:49.695Z,101053.53
2022-07-29T17:30:17.921Z,101048.41
2022-07-29T17:32:45.982Z,101047.16
2022-07-29T17:35:27.854Z,101054.22
2022-07-29T17:37:57.416Z,101059.03
2022-07-29T17:40:25.459Z,101050.72
2022-07-29T17:42:53.340Z,101049.78
2022-07-29T17:45:21.236Z,101047.78
2022-07-29T17:47:49.038Z,101047.94
2022-07-29T17:50:16.895Z,101054.75
2022-07-29T17:52:44.802Z,101058.72
2022-07-29T17:55:14.263Z,101053.53
2022-07-29T17:57:42.129Z,101053.22
2022-07-29T18:00:10.905Z,101062.88
2022-07-29T18:02:38.928Z,101063.31
2022-07-29T18:05:07.305Z,101053.81
2022-07-29T18:07:35.157Z,101060.50
2022-07-29T18:10:03.043Z,101059.66
2022-07-29T18:12:32.205Z,101061.53
2022-07-29T18:15:00.106Z,101062.56
2022-07-29T18:17:35.085Z,101057.56
2022-07-29T18:20:16.875Z,101065.19
2022-07-29T18:22:44.811Z,101063.72
2022-07-29T18:25:12.885Z,101070.84
2022-07-29T18:27:42.040Z,101075.81
2022-07-29T18:30:10.727Z,101071.22
2022-07-29T18:32:38.577Z,101077.88
2022-07-29T18:35:07.413Z,101080.59
2022-07-29T18:38:01.579Z,101083.41
2022-07-29T18:40:25.726Z,101074.69
2022-07-29T18:42:55.661Z,101085.69
2022-07-29T18:45:28.281Z,101074.78
2022-07-29T18:47:56.900Z,101090.28
2022-07-29T18:50:29.179Z,101080.00
2022-07-29T18:52:58.776Z,101074.69
2022-07-29T18:55:27.549Z,101087.72
2022-07-29T18:57:57.471Z,101085.63
2022-07-29T19:00:26.810Z,101088.28
2022-07-29T19:02:54.773Z,101088.66
2022-07-29T19:05:23.300Z,101090.84
2022-07-29T19:07:51.203Z,101091.31
2022-07-29T19:10:19.249Z,101097.16
2022-07-29T19:12:47.059Z,101103.28
2022-07-29T19:15:20.021Z,101101.28
2022-07-29T19:17:48.675Z,101100.34
2022-07-29T19:20:17.040Z,101105.63
2022-07-29T19:22:45.011Z,101114.13
2022-07-29T19:25:13.227Z,101120.53
2022-07-29T19:27:43.081Z,101125.13
2022-07-29T19:30:12.040Z,101122.25
2022-07-29T19:32:41.201Z,101124.66
2022-07-29T19:35:27.318Z,101118.25
2022-07-29T19:37:57.142Z,101122.09
2022-07-29T19:40:25.957Z,101126.50
2022-07-29T19:42:54.472Z,101121.22
2022-07-29T19:45:24.660Z,101128.06
2022-07-29T19:47:59.038Z,101129.81
2022-07-29T19:50:29.354Z,101132.06
2022-07-29T19:52:57.305Z,101131.50
2022-07-29T19:55:25.133Z,101133.22
2022-07-29T19:57:53.703Z,101134.16
2022-07-29T20:00:23.923Z,101122.44
2022-07-29T20:02:53.607Z,101130.97
2022-07-29T20:05:21.499Z,101124.63
2022-07-29T20:07:56.073Z,101136.13
2022-07-29T20:10:24.017Z,101124.28
2022-07-29T20:12:53.917Z,101126.38
2022-07-29T20:15:23.473Z,101137.69
2022-07-29T20:17:56.891Z,101136.19
2022-07-29T20:20:26.025Z,101139.84
2022-07-29T20:22:54.134Z,101135.00
2022-07-29T20:25:22.524Z,101135.34
2022-07-29T20:27:52.486Z,101135.34
2022-07-29T20:30:20.462Z,101135.69
2022-07-29T20:32:49.313Z,101144.41
2022-07-29T20:35:20.184Z,101145.97
2022-07-29T20:37:52.547Z,101143.66
2022-07-29T20:40:25.700Z,101144.72
2022-07-29T20:42:53.695Z,101148.94
2022-07-29T20:45:23.349Z,101152.03
2022-07-29T20:47:52.687Z,101147.59
2022-07-29T20:50:24.169Z,101154.09
2022-07-29T20:52:53.191Z,101148.38
2022-07-29T20:55:22.145Z,101158.81
2022-07-29T20:57:50.110Z,101155.69
2022-07-29T21:00:18.604Z,101155.00
2022-07-29T21:02:47.428Z,101163.78
2022-07-29T21:05:15.528Z,101159.16
2022-07-29T21:07:44.827Z,101153.66
2022-07-29T21:10:14.174Z,101158.28
2022-07-29T21:12:42.711Z,101157.47
2022-07-29T21:15:13.529Z,101150.00
2022-07-29T21:17:46.857Z,101151.63
2022-07-29T21:20:16.459Z,101163.31
2022-07-29T21:22:46.672Z,101159.59
2022-07-29T21:25:14.645Z,101164.75
2022-07-29T21:28:00.080Z,101161.72
2022-07-29T21:30:28.863Z,101166.56
2022-07-29T21:32:56.940Z,101174.00
2022-07-29T21:36:02.164Z,101169.75
2022-07-29T21:38:16.333Z,101167.47
2022-07-29T21:40:45.355Z,101164.50
2022-07-29T21:43:13.798Z,101168.53
2022-07-29T21:45:42.827Z,101165.53
2022-07-29T21:48:11.724Z,101166.44
2022-07-29T21:50:41.376Z,101160.28
2022-07-29T21:53:11.125Z,101166.31
2022-07-29T21:55:43.858Z,101162.69
2022-07-29T21:58:12.278Z,101161.31
2022-07-29T22:00:41.328Z,101152.50
2022-07-29T22:03:09.664Z,101155.47
2022-07-29T22:05:37.787Z,101156.13
2022-07-29T22:08:06.451Z,101155.56
2022-07-29T22:10:34.809Z,101160.50
2022-07-29T22:13:04.710Z,101158.91
2022-07-29T22:15:33.099Z,101152.78
2022-07-29T22:18:01.123Z,101151.81
2022-07-29T22:20:29.248Z,101160.72
2022-07-29T22:22:57.288Z,101155.88
2022-07-29T22:25:25.368Z,101151.09
2022-07-29T22:27:53.440Z,101151.13
2022-07-29T22:30:22.667Z,101157.94
2022-07-29T22:32:50.600Z,101149.69
2022-07-29T22:35:18.530Z,101141.41
2022-07-29T22:37:46.502Z,101144.09
2022-07-29T22:40:14.465Z,101143.28
2022-07-29T22:42:42.466Z,101138.78
2022-07-29T22:45:11.657Z,101136.56
2022-07-29T22:47:48.215Z,101136.50
2022-07-29T22:50:17.922Z,101139.13
2022-07-29T22:52:46.938Z,101137.38
2022-07-29T22:55:15.235Z,101127.91
2022-07-29T22:57:43.405Z,101127.56
2022-07-29T23:00:13.681Z,101127.16
2022-07-29T23:02:43.021Z,101127.59
2022-07-29T23:05:11.574Z,101117.56
2022-07-29T23:07:39.573Z,101113.22
2022-07-29T23:10:08.755Z,101114.91
2022-07-29T23:12:37.154Z,101118.63
2022-07-29T23:15:05.546Z,101118.63
2022-07-29T23:17:36.532Z,101122.53
2022-07-29T23:20:09.895Z,101108.09
2022-07-29T23:22:39.023Z,101118.03
2022-07-29T23:25:08.559Z,101123.06
2022-07-29T23:27:36.535Z,101112.97
2022-07-29T23:30:06.191Z,101118.25
2022-07-29T23:32:34.350Z,101117.84
2022-07-29T23:35:02.637Z,101121.81
2022-07-29T23:37:32.278Z,101106.50
2022-07-29T23:40:00.301Z,101108.25
2022-07-29T23:42:28.327Z,101114.69
2022-07-29T23:44:56.380Z,101109.78
2022-07-29T23:47:24.443Z,101107.94
2022-07-29T23:49:52.434Z,101109.66
2022-07-29T23:52:20.345Z,101113.56
2022-07-29T23:54:49.586Z,101105.88
2022-07-29T23:57:17.523Z,101116.34
2022-07-29T23:59:45.427Z,101118.00
